Time;durP1;ratioP1;P1;durP2;ratioP2;P2;SDS_P1;SDS_P2;PMS_P1;PMS_P2;Temp;Humidity;BMP_temperature;BMP_pressure;BME280_temperature;BME280_humidity;BME280_pressure;Samples;Min_cycle;Max_cycle;Signal;HPM_P1;HPM_P2
2021/04/25 00:00:52;;;;;;;39.10;21.30;;;153.60;2252.80;;;;;;5073428;28;20591;-68
2021/04/25 00:03:18;;;;;;;35.63;20.00;;;153.60;2252.80;;;;;;5073510;28;20086;-68
2021/04/25 00:05:44;;;;;;;41.95;21.70;;;153.60;2252.80;;;;;;5073565;28;20112;-66
2021/04/25 00:08:10;;;;;;;48.15;23.63;;;128.90;2252.80;;;;;;5055146;28;20454;-67
2021/04/25 00:10:35;;;;;;;46.67;23.67;;;128.90;2252.80;;;;;;5072838;28;20059;-67
2021/04/25 00:13:01;;;;;;;133.40;43.90;;;128.90;2252.80;;;;;;5072933;28;20048;-67
2021/04/25 00:15:28;;;;;;;58.38;25.98;;;128.90;2252.80;;;;;;5069699;28;20023;-68
2021/04/25 00:17:53;;;;;;;46.03;22.10;;;128.90;2252.80;;;;;;5073083;28;20033;-67
2021/04/25 00:20:20;;;;;;;42.05;21.17;;;128.80;2252.80;;;;;;5071625;28;20389;-69
2021/04/25 00:22:47;;;;;;;42.00;21.38;;;128.80;2252.80;;;;;;5072956;28;20033;-69
2021/04/25 00:25:14;;;;;;;35.60;19.08;;;128.60;2252.80;;;;;;5072874;28;20362;-68
2021/04/25 00:27:40;;;;;;;39.67;19.42;;;128.50;2252.80;;;;;;5072775;28;20860;-67
2021/04/25 00:30:08;;;;;;;36.92;18.98;;;128.40;2252.80;;;;;;5072493;28;20032;-68
2021/04/25 00:32:34;;;;;;;40.92;19.70;;;128.40;2252.80;;;;;;5072754;28;20036;-70
2021/04/25 00:35:00;;;;;;;38.00;20.33;;;128.30;2252.80;;;;;;5072936;28;20020;-67
2021/04/25 00:37:25;;;;;;;34.08;17.63;;;128.30;2252.80;;;;;;5072559;28;20021;-68
2021/04/25 00:39:51;;;;;;;35.10;18.27;;;128.40;2252.80;;;;;;5072475;28;20020;-69
2021/04/25 00:42:17;;;;;;;36.75;18.67;;;128.30;2252.80;;;;;;5071711;28;20081;-70
2021/04/25 00:44:46;;;;;;;32.92;17.88;;;128.30;2252.80;;;;;;5072616;28;20358;-73
2021/04/25 00:47:12;;;;;;;37.25;18.63;;;128.30;2252.80;;;;;;5072672;28;20062;-68
2021/04/25 00:49:39;;;;;;;37.90;19.65;;;128.20;2252.80;;;;;;5072121;28;20027;-67
2021/04/25 00:52:06;;;;;;;38.95;20.02;;;128.10;2252.80;;;;;;5072459;28;20565;-66
2021/04/25 00:54:32;;;;;;;36.55;20.02;;;128.10;2252.80;;;;;;5072062;28;20056;-69
2021/04/25 00:56:59;;;;;;;36.33;19.70;;;128.10;2252.80;;;;;;5072655;28;20070;-71
2021/04/25 00:59:26;;;;;;;39.33;19.35;;;128.00;2252.80;;;;;;5071884;28;20056;-67
2021/04/25 01:01:52;;;;;;;34.45;17.65;;;103.30;2227.20;;;;;;5071098;28;20012;-68
2021/04/25 01:04:18;;;;;;;30.98;17.55;;;103.20;2227.20;;;;;;5072285;28;20025;-67
2021/04/25 01:06:44;;;;;;;36.63;18.08;;;103.20;2227.20;;;;;;5072507;28;20052;-76
2021/04/25 01:09:10;;;;;;;30.92;17.63;;;103.20;2227.20;;;;;;5071749;28;20032;-72
2021/04/25 01:11:35;;;;;;;34.63;17.58;;;103.20;2227.20;;;;;;5072439;28;20027;-67
2021/04/25 01:14:01;;;;;;;36.13;18.42;;;103.10;2227.20;;;;;;5072097;28;20025;-75
2021/04/25 01:16:28;;;;;;;33.72;18.25;;;103.10;2227.20;;;;;;5071951;28;20025;-68
2021/04/25 01:18:55;;;;;;;39.58;20.45;;;103.10;2227.20;;;;;;5071251;28;20013;-72
2021/04/25 01:21:21;;;;;;;39.65;19.85;;;103.10;2227.20;;;;;;5072307;28;20507;-67
2021/04/25 01:23:47;;;;;;;36.50;20.05;;;103.10;2227.20;;;;;;5071785;28;20047;-68
2021/04/25 01:26:12;;;;;;;35.22;19.10;;;103.10;2227.20;;;;;;5071690;28;20473;-75
2021/04/25 01:28:38;;;;;;;38.28;19.85;;;103.10;2227.20;;;;;;5071579;28;20024;-67
2021/04/25 01:31:04;;;;;;;39.65;21.33;;;103.10;2227.20;;;;;;5071659;28;20086;-69
2021/04/25 01:33:33;;;;;;;39.33;21.17;;;103.10;2227.20;;;;;;5071611;28;20033;-75
2021/04/25 01:35:59;;;;;;;39.72;21.73;;;103.10;2227.20;;;;;;5071395;28;20025;-74
2021/04/25 01:38:24;;;;;;;42.75;21.65;;;102.90;2227.20;;;;;;5071437;28;20540;-70
2021/04/25 01:40:50;;;;;;;41.75;22.35;;;102.80;2227.20;;;;;;5071294;28;20025;-72
2021/04/25 01:43:16;;;;;;;38.38;20.88;;;102.80;2227.20;;;;;;5071413;28;20391;-66
2021/04/25 01:45:42;;;;;;;39.65;21.80;;;102.60;2227.20;;;;;;5071134;28;20099;-72
2021/04/25 01:48:08;;;;;;;33.83;19.10;;;102.60;2227.20;;;;;;5071263;28;20020;-76
2021/04/25 01:50:35;;;;;;;32.47;18.45;;;102.60;2227.20;;;;;;5052499;28;20419;-77
2021/04/25 01:53:01;;;;;;;33.58;19.08;;;102.60;2227.20;;;;;;5053138;28;20489;-66
2021/04/25 01:55:30;;;;;;;39.08;21.77;;;102.60;2227.20;;;;;;5070028;28;20032;-66
2021/04/25 01:57:56;;;;;;;37.72;20.75;;;102.60;2227.20;;;;;;5071271;28;20527;-66
2021/04/25 02:00:34;;;;;;;37.90;20.92;;;102.60;2227.20;;;;;;5070411;28;20481;-75
2021/04/25 02:03:01;;;;;;;41.58;20.15;;;102.50;2227.20;;;;;;5071119;28;20078;-66
2021/04/25 02:05:27;;;;;;;35.28;19.17;;;102.50;2227.20;;;;;;5070578;28;20107;-67
2021/04/25 02:07:53;;;;;;;35.30;18.80;;;102.50;2227.20;;;;;;5071161;28;20100;-68
2021/04/25 02:10:20;;;;;;;38.22;18.63;;;77.70;2227.20;;;;;;5070141;28;20075;-72
2021/04/25 02:12:46;;;;;;;35.72;17.65;;;77.70;2227.20;;;;;;5071257;28;20036;-66
2021/04/25 02:15:13;;;;;;;31.45;17.40;;;77.60;2227.20;;;;;;5070744;28;20442;-70
2021/04/25 02:17:42;;;;;;;31.05;17.35;;;77.60;2227.20;;;;;;5071061;28;20373;-68
2021/04/25 02:20:08;;;;;;;32.50;16.40;;;77.60;2227.20;;;;;;5070280;28;20033;-69
2021/04/25 02:22:34;;;;;;;30.42;16.77;;;77.60;2227.20;;;;;;5070608;28;20105;-69
2021/04/25 02:25:00;;;;;;;31.90;17.08;;;77.50;2227.20;;;;;;5070609;28;20059;-67
2021/04/25 02:27:25;;;;;;;30.45;17.42;;;77.40;2227.20;;;;;;5070559;28;20025;-71
2021/04/25 02:29:51;;;;;;;34.55;18.67;;;77.40;2227.20;;;;;;5070246;28;20032;-75
2021/04/25 02:32:17;;;;;;;29.85;16.85;;;77.40;2227.20;;;;;;5052823;28;20035;-75
2021/04/25 02:34:42;;;;;;;50.35;25.05;;;77.40;2227.20;;;;;;5070554;28;20024;-71
2021/04/25 02:37:08;;;;;;;92.95;45.30;;;77.20;2227.20;;;;;;5070716;28;20481;-75
2021/04/25 02:39:34;;;;;;;58.13;30.88;;;77.20;2227.20;;;;;;5069935;28;20016;-70
2021/04/25 02:42:00;;;;;;;52.30;25.80;;;77.30;2227.20;;;;;;5070549;28;20041;-74
2021/04/25 02:44:25;;;;;;;44.28;23.67;;;77.30;2227.20;;;;;;5070613;28;20032;-66
2021/04/25 02:46:51;;;;;;;44.70;22.58;;;77.30;2227.20;;;;;;5070880;28;20055;-70
2021/04/25 02:49:17;;;;;;;47.10;21.85;;;77.30;2227.20;;;;;;5070143;28;20359;-74
2021/04/25 02:51:43;;;;;;;41.58;20.63;;;77.30;2227.20;;;;;;5070189;28;20040;-65
2021/04/25 02:54:10;;;;;;;37.88;19.02;;;77.40;2227.20;;;;;;5070300;28;20027;-77
2021/04/25 02:56:35;;;;;;;32.90;18.00;;;77.40;2227.20;;;;;;5070004;28;20054;-67
2021/04/25 02:59:01;;;;;;;34.72;17.98;;;77.40;2227.20;;;;;;5070285;28;20025;-70
2021/04/25 03:01:27;;;;;;;35.00;17.75;;;77.30;2227.20;;;;;;5069985;28;20028;-75
2021/04/25 03:03:53;;;;;;;31.50;16.98;;;77.40;2227.20;;;;;;5070486;28;20036;-66
2021/04/25 03:06:18;;;;;;;29.85;15.15;;;77.40;2227.20;;;;;;5074815;28;20040;-72
2021/04/25 03:08:44;;;;;;;24.38;14.10;;;77.40;2227.20;;;;;;5076653;28;20380;-66
2021/04/25 03:11:10;;;;;;;22.67;13.15;;;77.40;2227.20;;;;;;5076888;28;20036;-71
2021/04/25 03:13:35;;;;;;;25.48;13.73;;;77.40;2227.20;;;;;;5076836;28;20020;-65
2021/04/25 03:16:01;;;;;;;28.67;15.07;;;77.40;2227.20;;;;;;5076966;28;20087;-70
2021/04/25 03:18:27;;;;;;;34.80;16.10;;;77.30;2227.20;;;;;;5076555;28;20095;-67
2021/04/25 03:20:52;;;;;;;36.28;18.55;;;77.30;2227.20;;;;;;5076531;28;20021;-67
2021/04/25 03:23:18;;;;;;;36.00;19.10;;;77.30;2227.20;;;;;;5077005;28;20020;-66
2021/04/25 03:25:44;;;;;;;33.53;18.15;;;77.40;2227.20;;;;;;5076841;28;20021;-68
2021/04/25 03:28:10;;;;;;;35.17;18.58;;;77.30;2227.20;;;;;;5076967;28;20025;-76
2021/04/25 03:30:36;;;;;;;37.80;16.98;;;77.30;2227.20;;;;;;5076184;28;20066;-66
2021/04/25 03:33:03;;;;;;;31.15;16.38;;;77.30;2227.20;;;;;;5076719;28;20551;-71
2021/04/25 03:35:29;;;;;;;39.88;18.85;;;77.30;2227.20;;;;;;5075728;28;20477;-75
2021/04/25 03:37:55;;;;;;;36.65;18.40;;;77.40;2227.20;;;;;;5076666;28;20031;-69
2021/04/25 03:40:20;;;;;;;41.92;19.08;;;77.40;2227.20;;;;;;5076111;28;20021;-76
2021/04/25 03:42:47;;;;;;;38.67;20.27;;;77.40;2227.20;;;;;;5076529;28;20389;-76
2021/04/25 03:45:14;;;;;;;42.92;19.98;;;77.40;2227.20;;;;;;5058750;28;20480;-69
2021/04/25 03:47:45;;;;;;;42.88;20.17;;;77.40;2227.20;;;;;;5076338;28;20031;-75
2021/04/25 03:50:11;;;;;;;36.92;19.33;;;77.40;2227.20;;;;;;5076397;28;20046;-69
2021/04/25 03:52:37;;;;;;;40.65;22.58;;;77.40;2227.20;;;;;;5076334;28;20445;-75
2021/04/25 03:55:04;;;;;;;35.28;18.98;;;77.40;2227.20;;;;;;5078519;28;20049;-69
2021/04/25 03:57:30;;;;;;;30.58;16.48;;;77.40;2227.20;;;;;;5079738;28;20024;-70
2021/04/25 03:59:56;;;;;;;29.10;15.77;;;77.40;2227.20;;;;;;5077429;28;20020;-65
2021/04/25 04:02:21;;;;;;;31.50;16.88;;;77.40;2227.20;;;;;;5078428;28;20025;-74
2021/04/25 04:04:47;;;;;;;32.03;15.85;;;77.40;2227.20;;;;;;5076608;28;20428;-73
2021/04/25 04:07:13;;;;;;;32.47;16.20;;;77.30;2227.20;;;;;;5076483;28;20035;-75
2021/04/25 04:09:39;;;;;;;32.88;15.38;;;77.20;2227.20;;;;;;5076292;28;20024;-70
2021/04/25 04:12:07;;;;;;;30.67;15.93;;;77.20;2227.20;;;;;;5076463;28;20090;-66
2021/04/25 04:14:33;;;;;;;30.88;15.45;;;77.30;2227.20;;;;;;5076526;28;20032;-69
2021/04/25 04:16:58;;;;;;;26.88;14.32;;;77.20;2227.20;;;;;;5074208;28;20032;-67
2021/04/25 04:19:24;;;;;;;28.20;14.45;;;77.20;2227.20;;;;;;5079766;28;20095;-67
2021/04/25 04:21:50;;;;;;;24.42;14.00;;;77.20;2227.20;;;;;;5080520;28;20036;-71
2021/04/25 04:24:15;;;;;;;23.35;13.10;;;77.30;2227.20;;;;;;5072834;28;20024;-66
2021/04/25 04:26:41;;;;;;;24.38;13.25;;;77.40;2227.20;;;;;;5072968;28;20446;-69
2021/04/25 04:29:07;;;;;;;20.75;12.48;;;77.50;2227.20;;;;;;5072627;28;20024;-71
2021/04/25 04:31:32;;;;;;;22.67;12.02;;;77.60;2227.20;;;;;;5072771;28;20469;-67
2021/04/25 04:33:58;;;;;;;20.88;11.23;;;102.40;2227.20;;;;;;5054726;28;20064;-67
2021/04/25 04:36:24;;;;;;;19.67;11.35;;;102.60;2227.20;;;;;;5072719;28;20039;-71
2021/04/25 04:38:50;;;;;;;18.52;11.00;;;102.70;2227.20;;;;;;5072612;28;20505;-72
2021/04/25 04:41:16;;;;;;;19.98;10.57;;;102.80;2227.20;;;;;;5072450;28;20028;-77
2021/04/25 04:43:41;;;;;;;18.98;11.02;;;103.00;2227.20;;;;;;5073097;28;20155;-67
2021/04/25 04:46:07;;;;;;;22.70;10.95;;;103.20;2227.20;;;;;;5072575;28;20099;-70
2021/04/25 04:48:33;;;;;;;26.05;12.75;;;128.10;2252.80;;;;;;5072287;28;20125;-75
2021/04/25 04:50:59;;;;;;;22.95;13.13;;;128.40;2252.80;;;;;;5072311;28;20043;-67
2021/04/25 04:53:24;;;;;;;27.95;14.30;;;128.80;2252.80;;;;;;5072644;28;20056;-71
2021/04/25 04:55:50;;;;;;;30.10;14.55;;;153.80;2252.80;;;;;;5072551;28;20114;-73
2021/04/25 04:58:16;;;;;;;26.40;13.23;;;154.30;2252.80;;;;;;5071972;28;20028;-68
2021/04/25 05:00:42;;;;;;;22.48;12.70;;;179.40;2252.80;;;;;;5072234;28;20017;-75
2021/04/25 05:03:07;;;;;;;24.52;13.55;;;179.80;2252.80;;;;;;5072167;28;20103;-67
2021/04/25 05:05:33;;;;;;;25.55;14.30;;;205.10;2252.80;;;;;;5072331;28;20059;-68
2021/04/25 05:07:59;;;;;;;24.33;12.80;;;230.40;2176.00;;;;;;5072494;28;20469;-70
2021/04/25 05:10:25;;;;;;;20.05;11.30;;;231.10;2022.40;;;;;;5071738;28;20040;-77
2021/04/25 05:12:51;;;;;;;16.77;10.93;;;256.30;1945.60;;;;;;5072312;28;20032;-71
2021/04/25 05:15:17;;;;;;;17.08;11.30;;;281.70;1868.80;;;;;;5072180;28;20021;-77
2021/04/25 05:17:42;;;;;;;17.33;11.85;;;282.30;1817.60;;;;;;5072201;28;20043;-66
2021/04/25 05:20:09;;;;;;;16.80;12.43;;;307.90;1740.80;;;;;;5071793;28;20079;-72
2021/04/25 05:22:34;;;;;;;19.98;12.48;;;333.30;1689.60;;;;;;5071868;28;20472;-69
2021/04/25 05:25:00;;;;;;;19.77;13.73;;;333.70;1638.40;;;;;;5072110;28;20021;-71
2021/04/25 05:27:26;;;;;;;20.77;14.30;;;358.80;1587.20;;;;;;5071892;28;20032;-71
2021/04/25 05:29:51;;;;;;;21.13;12.93;;;384.10;1510.40;;;;;;5071538;28;20053;-71
2021/04/25 05:32:17;;;;;;;18.25;13.63;;;384.50;1510.40;;;;;;5071576;28;20537;-71
2021/04/25 05:34:43;;;;;;;18.33;12.85;;;409.70;1459.20;;;;;;5071706;28;20021;-76
2021/04/25 05:37:09;;;;;;;17.48;12.85;;;410.00;1433.60;;;;;;5071710;28;20017;-75
2021/04/25 05:39:34;;;;;;;19.35;13.23;;;410.50;1408.00;;;;;;5071041;28;20032;-75
2021/04/25 05:42:00;;;;;;;18.00;13.30;;;435.60;1382.40;;;;;;5071881;28;20016;-66
2021/04/25 05:44:27;;;;;;;18.02;13.52;;;435.80;1331.20;;;;;;5071410;28;20020;-67
2021/04/25 05:46:54;;;;;;;16.67;13.32;;;460.80;1356.80;;;;;;5071911;28;20028;-72
2021/04/25 05:49:20;;;;;;;18.10;13.60;;;461.10;1331.20;;;;;;5070807;28;20042;-69
2021/04/25 05:51:49;;;;;;;19.70;14.52;;;461.70;1305.60;;;;;;5071276;28;20119;-70
2021/04/25 05:54:15;;;;;;;19.48;15.07;;;486.40;1254.40;;;;;;5071340;28;20020;-78
2021/04/25 05:56:41;;;;;;;17.58;15.18;;;486.70;1228.80;;;;;;5071509;28;20373;-68
2021/04/25 05:59:07;;;;;;;19.73;16.45;;;486.80;1228.80;;;;;;5071197;28;20376;-67
2021/04/25 06:01:33;;;;;;;20.58;16.10;;;487.20;1228.80;;;;;;5070893;28;20024;-72
2021/04/25 06:03:58;;;;;;;18.98;15.63;;;487.30;1203.20;;;;;;5071473;28;20028;-70
2021/04/25 06:06:24;;;;;;;20.15;16.10;;;512.40;1177.60;;;;;;5071002;28;20028;-67
2021/04/25 06:08:50;;;;;;;23.95;16.25;;;512.50;1177.60;;;;;;5070453;28;20024;-72
2021/04/25 06:11:16;;;;;;;18.45;14.20;;;537.60;1152.00;;;;;;5071243;28;20028;-67
2021/04/25 06:13:42;;;;;;;17.20;14.18;;;538.30;1126.40;;;;;;5070939;28;20028;-72
2021/04/25 06:16:08;;;;;;;15.98;13.02;;;563.40;1126.40;;;;;;5065362;28;20115;-77
2021/04/25 06:18:33;;;;;;;16.38;13.20;;;564.00;1100.80;;;;;;5070604;28;20074;-73
2021/04/25 06:20:59;;;;;;;15.18;13.30;;;563.60;1100.80;;;;;;5070988;28;20016;-71
2021/04/25 06:23:25;;;;;;;15.80;13.20;;;564.00;1100.80;;;;;;5070784;28;20048;-68
2021/04/25 06:25:51;;;;;;;15.40;12.75;;;563.90;1075.20;;;;;;5070697;28;20773;-67
2021/04/25 06:28:17;;;;;;;16.50;13.18;;;564.00;1100.80;;;;;;5070512;28;20031;-75
2021/04/25 06:30:42;;;;;;;19.75;14.27;;;564.00;1075.20;;;;;;5070258;28;20020;-71
2021/04/25 06:33:08;;;;;;;20.90;17.65;;;588.90;1075.20;;;;;;5070462;28;20024;-67
2021/04/25 06:35:34;;;;;;;16.40;13.52;;;589.40;1049.60;;;;;;5070494;28;20052;-71
2021/04/25 06:38:00;;;;;;;16.42;13.32;;;589.60;1049.60;;;;;;5070437;28;20024;-71
2021/04/25 06:40:25;;;;;;;16.80;13.30;;;615.00;998.40;;;;;;5069897;28;20032;-71
2021/04/25 06:42:51;;;;;;;14.98;12.38;;;640.10;972.80;;;;;;5070513;28;20028;-71
2021/04/25 06:45:19;;;;;;;15.00;11.73;;;640.10;972.80;;;;;;5070585;28;20032;-67
2021/04/25 06:47:46;;;;;;;13.55;11.95;;;640.40;972.80;;;;;;5070213;28;20032;-77
2021/04/25 06:50:13;;;;;;;15.30;12.23;;;666.00;947.20;;;;;;5070261;28;20033;-71
2021/04/25 06:52:44;;;;;;;14.68;12.00;;;640.80;972.80;;;;;;5070082;28;20056;-76
2021/04/25 06:55:15;;;;;;;17.25;12.18;;;665.60;947.20;;;;;;5070359;28;20110;-71
2021/04/25 06:57:41;;;;;;;17.08;12.45;;;666.10;947.20;;;;;;5070143;28;20587;-73
2021/04/25 07:00:08;;;;;;;14.80;11.98;;;666.10;921.60;;;;;;5069609;28;20020;-68
2021/04/25 07:02:34;;;;;;;15.80;12.57;;;691.50;896.00;;;;;;5070285;28;20032;-67
2021/04/25 07:05:00;;;;;;;16.30;11.98;;;716.80;896.00;;;;;;5069608;28;20054;-75
2021/04/25 07:07:25;;;;;;;13.68;11.43;;;717.50;870.40;;;;;;5070052;28;20107;-77
2021/04/25 07:09:51;;;;;;;14.75;11.88;;;717.40;844.80;;;;;;5055757;28;20553;-71
2021/04/25 07:12:17;;;;;;;14.82;11.82;;;717.10;819.20;;;;;;5070229;28;20031;-73
2021/04/25 07:14:42;;;;;;;16.83;13.15;;;742.40;870.40;;;;;;5069370;28;20028;-72
2021/04/25 07:17:08;;;;;;;17.20;12.38;;;717.30;844.80;;;;;;5068696;28;20041;-69
2021/04/25 07:19:34;;;;;;;17.02;12.50;;;743.00;819.20;;;;;;5051850;28;20514;-75
2021/04/25 07:22:00;;;;;;;15.10;11.82;;;742.40;844.80;;;;;;5051112;28;20040;-74
2021/04/25 07:24:26;;;;;;;15.02;11.73;;;743.00;819.20;;;;;;5051445;28;20533;-69
2021/04/25 07:26:52;;;;;;;17.30;13.13;;;768.40;793.60;;;;;;5050204;28;20032;-67
2021/04/25 07:29:18;;;;;;;15.70;11.68;;;768.10;793.60;;;;;;5049814;28;20017;-68
2021/04/25 07:31:43;;;;;;;16.48;12.75;;;768.80;819.20;;;;;;5069644;28;20028;-79
2021/04/25 07:34:09;;;;;;;15.10;11.77;;;768.60;819.20;;;;;;5069200;28;20031;-72
2021/04/25 07:36:35;;;;;;;13.88;11.57;;;768.60;819.20;;;;;;5069465;28;20410;-77
2021/04/25 07:39:01;;;;;;;15.98;11.90;;;768.60;819.20;;;;;;5068749;28;20112;-68
2021/04/25 07:41:27;;;;;;;16.15;11.52;;;794.50;793.60;;;;;;5069432;28;20021;-69
2021/04/25 07:43:53;;;;;;;13.50;10.65;;;819.80;768.00;;;;;;5069722;28;20096;-76
2021/04/25 07:46:19;;;;;;;14.02;10.85;;;845.20;768.00;;;;;;5068363;28;20089;-77
2021/04/25 07:48:45;;;;;;;14.18;11.00;;;845.70;768.00;;;;;;5068827;28;20538;-79
2021/04/25 07:51:11;;;;;;;14.65;11.20;;;870.50;742.40;;;;;;5051301;28;20041;-68
2021/04/25 07:53:37;;;;;;;17.55;13.00;;;870.70;742.40;;;;;;5072066;28;20042;-75
2021/04/25 07:56:04;;;;;;;13.73;10.95;;;870.40;742.40;;;;;;5073066;28;20048;-77
2021/04/25 07:58:30;;;;;;;15.63;11.05;;;845.30;768.00;;;;;;5073145;28;20032;-73
2021/04/25 08:00:55;;;;;;;14.20;10.20;;;845.10;768.00;;;;;;5072611;28;20404;-69
2021/04/25 08:03:21;;;;;;;14.45;9.77;;;870.50;742.40;;;;;;5072934;28;20065;-72
2021/04/25 08:05:47;;;;;;;14.52;10.32;;;845.40;742.40;;;;;;5072873;28;20017;-72
2021/04/25 08:08:12;;;;;;;15.52;10.20;;;870.90;742.40;;;;;;5072739;28;20166;-72
2021/04/25 08:10:38;;;;;;;12.55;9.40;;;896.10;716.80;;;;;;5072461;28;20023;-74
2021/04/25 08:13:04;;;;;;;12.52;9.20;;;896.40;716.80;;;;;;5072973;28;20024;-70
2021/04/25 08:15:31;;;;;;;13.00;9.18;;;896.70;691.20;;;;;;5072787;28;20035;-76
2021/04/25 08:17:56;;;;;;;14.18;8.88;;;921.80;716.80;;;;;;5066794;28;20036;-71
2021/04/25 08:20:24;;;;;;;13.30;8.65;;;922.00;691.20;;;;;;5054516;28;20040;-71
2021/04/25 08:22:49;;;;;;;12.63;8.25;;;896.80;691.20;;;;;;5056193;28;20032;-77
2021/04/25 08:25:15;;;;;;;13.45;8.38;;;871.30;716.80;;;;;;5054263;28;20029;-73
2021/04/25 08:27:42;;;;;;;11.90;7.22;;;871.00;716.80;;;;;;5055465;28;20091;-79
2021/04/25 08:30:09;;;;;;;11.30;6.75;;;845.40;742.40;;;;;;5053108;28;20017;-69
2021/04/25 08:32:34;;;;;;;11.25;7.20;;;819.70;716.80;;;;;;5053448;28;20024;-68
2021/04/25 08:35:01;;;;;;;11.10;7.18;;;768.10;819.20;;;;;;5062372;28;20443;-68
2021/04/25 08:37:27;;;;;;;10.05;6.47;;;743.10;819.20;;;;;;5072804;28;20029;-68
2021/04/25 08:39:53;;;;;;;9.85;6.60;;;742.60;819.20;;;;;;5072301;28;20035;-69
2021/04/25 08:42:18;;;;;;;11.30;6.38;;;717.40;793.60;;;;;;5073065;28;20035;-70
2021/04/25 08:44:46;;;;;;;10.05;5.72;;;716.90;793.60;;;;;;5072359;28;20013;-72
2021/04/25 08:47:13;;;;;;;9.73;6.47;;;691.70;793.60;;;;;;5072733;28;20078;-67
2021/04/25 08:49:41;;;;;;;10.75;6.38;;;665.90;819.20;;;;;;5072024;28;20531;-67
2021/04/25 08:52:08;;;;;;;9.88;6.00;;;640.50;793.60;;;;;;5072387;28;20127;-71
2021/04/25 08:54:34;;;;;;;9.52;6.00;;;640.10;793.60;;;;;;5065687;28;20029;-69
2021/04/25 08:56:59;;;;;;;11.75;6.53;;;640.10;793.60;;;;;;5054874;28;20021;-72
2021/04/25 08:59:25;;;;;;;11.18;6.50;;;615.10;793.60;;;;;;5059561;28;20532;-73
2021/04/25 09:01:51;;;;;;;11.40;6.65;;;563.80;896.00;;;;;;5072311;28;20385;-72
2021/04/25 09:04:17;;;;;;;11.32;6.80;;;538.30;921.60;;;;;;5072275;28;20034;-67
2021/04/25 09:07:03;;;;;;;11.38;6.25;;;538.40;896.00;;;;;;5071507;28;20012;-67
2021/04/25 09:09:47;;;;;;;11.00;6.28;;;538.50;921.60;;;;;;5064895;28;20554;-72
2021/04/25 09:12:29;;;;;;;13.20;6.72;;;563.50;972.80;;;;;;5072243;28;20056;-66
2021/04/25 09:14:55;;;;;;;10.23;6.53;;;563.50;921.60;;;;;;5072441;28;20035;-67
2021/04/25 09:17:20;;;;;;;10.57;6.60;;;563.30;947.20;;;;;;5072015;28;20016;-70
2021/04/25 09:19:55;;;;;;;9.32;5.80;;;563.40;921.60;;;;;;5061986;28;20028;-67
2021/04/25 09:22:23;;;;;;;9.95;6.40;;;563.80;972.80;;;;;;5052204;28;20031;-67
2021/04/25 09:24:49;;;;;;;9.43;6.45;;;563.90;947.20;;;;;;5051295;28;20092;-74
2021/04/25 09:27:26;;;;;;;10.00;6.40;;;564.00;921.60;;;;;;5058681;28;20039;-70
2021/04/25 09:29:57;;;;;;;8.98;5.82;;;564.00;947.20;;;;;;5069329;28;20026;-75
2021/04/25 09:32:25;;;;;;;11.75;6.45;;;564.10;896.00;;;;;;5071806;28;20063;-78
2021/04/25 09:35:16;;;;;;;13.13;6.20;;;563.90;921.60;;;;;;5071096;28;20489;-72
2021/04/25 09:37:43;;;;;;;;;;;564.10;947.20;;;;;;5071994;28;20036;-71
2021/04/25 09:40:11;;;;;;;10.05;6.40;;;564.10;896.00;;;;;;5071465;28;19904;-69
2021/04/25 09:42:55;;;;;;;10.45;5.72;;;588.80;921.60;;;;;;5071107;28;20489;-76
2021/04/25 09:45:48;;;;;;;9.95;6.03;;;588.90;921.60;;;;;;5071772;28;20419;-72
2021/04/25 09:48:28;;;;;;;9.95;6.00;;;589.30;921.60;;;;;;5051415;28;20072;-69
2021/04/25 09:51:05;;;;;;;10.52;6.07;;;563.90;870.40;;;;;;5070712;28;20119;-71
2021/04/25 09:53:31;;;;;;;9.38;5.65;;;563.90;972.80;;;;;;5071371;28;20025;-72
2021/04/25 09:55:57;;;;;;;11.55;7.85;;;563.90;870.40;;;;;;5070076;28;20029;-78
2021/04/25 09:58:23;;;;;;;10.60;5.68;;;563.80;896.00;;;;;;5069538;28;20520;-67
2021/04/25 10:00:51;;;;;;;8.80;5.70;;;538.40;844.80;;;;;;5070314;28;20163;-66
2021/04/25 10:03:22;;;;;;;9.43;5.78;;;538.20;870.40;;;;;;5071372;28;20111;-67
2021/04/25 10:05:59;;;;;;;11.23;5.82;;;537.90;896.00;;;;;;5068868;28;20512;-69
2021/04/25 10:08:33;;;;;;;10.10;5.88;;;538.50;896.00;;;;;;5065710;28;20052;-69
2021/04/25 10:11:03;;;;;;;8.65;5.78;;;563.30;921.60;;;;;;5049754;28;20028;-68
2021/04/25 10:13:30;;;;;;;9.77;6.20;;;563.40;896.00;;;;;;5062246;28;20044;-68
2021/04/25 10:15:56;;;;;;;9.05;5.25;;;538.40;921.60;;;;;;5057569;28;20104;-69
2021/04/25 10:18:23;;;;;;;9.45;5.72;;;563.20;921.60;;;;;;5059461;28;20130;-66
2021/04/25 10:20:54;;;;;;;8.60;5.38;;;563.20;947.20;;;;;;5058059;28;20568;-67
2021/04/25 10:23:21;;;;;;;9.02;5.43;;;563.40;896.00;;;;;;5057485;28;20025;-68
2021/04/25 10:25:47;;;;;;;8.55;5.70;;;563.50;921.60;;;;;;5058004;28;20028;-69
2021/04/25 10:28:40;;;;;;;8.82;5.10;;;563.70;896.00;;;;;;5065188;28;20025;-72
2021/04/25 10:31:12;;;;;;;9.52;5.10;;;563.60;844.80;;;;;;5069264;28;20031;-66
2021/04/25 10:33:52;;;;;;;9.80;5.47;;;563.90;870.40;;;;;;5063858;28;20025;-69
2021/04/25 10:36:20;;;;;;;8.52;5.00;;;563.80;896.00;;;;;;5070069;28;20016;-66
2021/04/25 10:38:45;;;;;;;10.02;6.70;;;563.40;819.20;;;;;;5059851;28;20041;-69
2021/04/25 10:41:21;;;;;;;5.82;3.55;;;563.50;844.80;;;;;;5065570;28;20025;-67
2021/04/25 10:44:03;;;;;;;7.43;3.60;;;563.60;819.20;;;;;;5065177;28;20039;-66
2021/04/25 10:46:54;;;;;;;6.47;3.90;;;563.90;844.80;;;;;;5062561;28;20388;-68
2021/04/25 10:49:31;;;;;;;5.60;3.30;;;563.90;819.20;;;;;;5064459;28;20021;-68
2021/04/25 10:52:27;;;;;;;7.43;4.35;;;564.10;819.20;;;;;;5066076;28;20044;-68
2021/04/25 10:55:15;;;;;;;10.35;6.40;;;563.70;844.80;;;;;;5065717;28;20405;-71
2021/04/25 10:57:56;;;;;;;6.93;4.40;;;538.40;819.20;;;;;;5061988;28;20036;-67
2021/04/25 11:00:31;;;;;;;6.32;4.13;;;538.20;793.60;;;;;;5061613;28;20033;-69
2021/04/25 11:03:00;;;;;;;10.35;5.55;;;538.50;844.80;;;;;;5063159;28;20088;-67
2021/04/25 11:05:35;;;;;;;11.25;8.48;;;563.40;870.40;;;;;;5059371;28;20103;-65
2021/04/25 11:08:02;;;;;;;7.90;4.57;;;563.50;844.80;;;;;;5069350;28;20482;-68
2021/04/25 11:10:43;;;;;;;5.85;3.45;;;563.70;844.80;;;;;;5069277;28;20069;-64
2021/04/25 11:13:40;;;;;;;7.07;3.97;;;563.60;768.00;;;;;;5069982;28;20024;-66
2021/04/25 11:16:33;;;;;;;6.43;5.00;;;563.80;819.20;;;;;;5070572;28;20028;-66
2021/04/25 11:19:10;;;;;;;5.80;3.78;;;563.70;768.00;;;;;;5066648;28;20443;-68
2021/04/25 11:21:55;;;;;;;4.85;3.05;;;563.20;793.60;;;;;;5070225;28;20047;-67
2021/04/25 11:24:27;;;;;;;4.93;3.20;;;563.50;819.20;;;;;;5070490;28;20021;-68
2021/04/25 11:26:57;;;;;;;5.88;3.47;;;563.60;819.20;;;;;;5071937;28;20063;-66
2021/04/25 11:29:28;;;;;;;6.18;3.53;;;563.70;793.60;;;;;;5074156;28;20057;-67
2021/04/25 11:32:01;;;;;;;5.22;3.22;;;563.30;793.60;;;;;;5074105;28;20078;-67
2021/04/25 11:36:57;;;;;;;7.25;4.85;;;563.90;768.00;;;;;;5074464;28;20485;-67
2021/04/25 11:39:44;;;;;;;5.93;3.60;;;563.80;793.60;;;;;;5066682;28;20021;-68
2021/04/25 11:42:33;;;;;;;6.20;2.97;;;563.80;793.60;;;;;;5072160;28;20115;-67
2021/04/25 11:45:24;;;;;;;4.97;2.90;;;563.70;768.00;;;;;;5067571;28;20023;-68
2021/04/25 11:47:59;;;;;;;5.55;3.10;;;563.90;742.40;;;;;;5054717;28;20497;-69
2021/04/25 11:50:33;;;;;;;6.18;3.88;;;563.60;768.00;;;;;;5061634;28;20115;-68
2021/04/25 11:52:59;;;;;;;6.07;4.00;;;563.40;793.60;;;;;;5039463;28;20401;-67
2021/04/25 11:55:26;;;;;;;7.85;4.10;;;563.30;844.80;;;;;;5053228;28;20028;-68
2021/04/25 11:57:52;;;;;;;6.40;3.90;;;563.60;844.80;;;;;;5053564;28;20474;-67
2021/04/25 12:00:30;;;;;;;5.68;3.67;;;563.70;819.20;;;;;;5053258;28;20082;-67
2021/04/25 12:03:04;;;;;;;5.53;3.55;;;564.00;844.80;;;;;;5051767;28;20397;-66
2021/04/25 12:05:38;;;;;;;6.85;3.60;;;564.10;819.20;;;;;;5053385;28;20070;-68
2021/04/25 12:08:14;;;;;;;7.28;3.67;;;564.10;819.20;;;;;;5053104;28;20028;-68
2021/04/25 12:10:45;;;;;;;6.85;3.78;;;589.00;793.60;;;;;;5053043;28;20021;-68
2021/04/25 12:13:21;;;;;;;6.45;3.78;;;588.90;793.60;;;;;;5053691;28;20029;-67
2021/04/25 12:15:54;;;;;;;5.50;3.45;;;589.10;844.80;;;;;;5052287;28;20021;-69
2021/04/25 12:18:28;;;;;;;6.85;3.75;;;589.20;793.60;;;;;;5053365;28;20021;-68